| time (UTC) | temp F | wind direction | speed MPH | gust MPH | rain 1hr in | rain 24hr in | rain mn in | humidity % | barometer mb |
| 20260508075013 | 67 | 189 | 0.0 | 0.0 | 0.00 | 0.00 | 0.00 | 33 | 1015.2 |
| 20260508074529 | 66 | 189 | 0.0 | 0.0 | 0.00 | 0.00 | 0.00 | 32 | 1015.3 |
| 20260508074025 | 66 | 189 | 0.0 | 0.0 | 0.00 | 0.00 | 0.00 | 33 | 1015.3 |
| 20260508073520 | 67 | 189 | 0.0 | 1.0 | 0.00 | 0.00 | 0.00 | 33 | 1015.4 |
| 20260508073019 | 67 | 189 | 0.0 | 2.0 | 0.00 | 0.00 | 0.00 | 32 | 1015.4 |
| 20260508072515 | 67 | 189 | 1.0 | 2.0 | 0.00 | 0.00 | 0.00 | 33 | 1015.4 |
| 20260508072012 | 67 | 189 | 1.0 | 2.0 | 0.00 | 0.00 | 0.00 | 32 | 1015.4 |
| 20260508071527 | 68 | 189 | 1.0 | 2.0 | 0.00 | 0.00 | 0.00 | 31 | 1015.5 |
| 20260508071023 | 68 | 189 | 0.0 | 2.0 | 0.00 | 0.00 | 0.00 | 30 | 1015.4 |
| 20260508070518 | 67 | 189 | 0.0 | 2.0 | 0.00 | 0.00 | 0.00 | 32 | 1015.4 |
| 20260508070046 | 67 | 188 | 1.0 | 2.0 | 0.00 | 0.00 | 0.00 | 33 | 1015.4 |
| 20260508065528 | 67 | 188 | 1.0 | 2.0 | 0.00 | 0.00 | 0.00 | 33 | 1015.3 |
| 20260508065024 | 68 | 188 | 0.0 | 0.0 | 0.00 | 0.00 | 0.00 | 31 | 1015.4 |
| 20260508064519 | 69 | 188 | 0.0 | 1.0 | 0.00 | 0.00 | 0.00 | 31 | 1015.3 |
| 20260508064014 | 70 | 188 | 0.0 | 1.0 | 0.00 | 0.00 | 0.00 | 29 | 1015.3 |
| 20260508063530 | 70 | 188 | 0.0 | 1.0 | 0.00 | 0.00 | 0.00 | 28 | 1015.3 |
| 20260508063025 | 71 | 188 | 0.0 | 1.0 | 0.00 | 0.00 | 0.00 | 28 | 1015.4 |
| 20260508062521 | 71 | 188 | 0.0 | 2.0 | 0.00 | 0.00 | 0.00 | 27 | 1015.5 |
| 20260508062020 | 72 | 188 | 0.0 | 2.0 | 0.00 | 0.00 | 0.00 | 26 | 1015.6 |
| 20260508061516 | 72 | 189 | 1.0 | 2.0 | 0.00 | 0.00 | 0.00 | 26 | 1015.5 |
| 20260508061012 | 72 | 189 | 0.0 | 1.0 | 0.00 | 0.00 | 0.00 | 26 | 1015.5 |
| 20260508060528 | 72 | 189 | 0.0 | 2.0 | 0.00 | 0.00 | 0.00 | 26 | 1015.5 |
| 20260508060036 | 72 | 189 | 1.0 | 2.0 | 0.00 | 0.00 | 0.00 | 26 | 1015.7 |
| 20260508055517 | 73 | 189 | 0.0 | 2.0 | 0.00 | 0.00 | 0.00 | 26 | 1015.5 |
| 20260508055014 | 72 | 189 | 0.0 | 3.0 | 0.00 | 0.00 | 0.00 | 26 | 1015.6 |
| 20260508054513 | 73 | 189 | 1.0 | 6.0 | 0.00 | 0.00 | 0.00 | 25 | 1015.5 |
| 20260508054029 | 73 | 190 | 1.0 | 6.0 | 0.00 | 0.00 | 0.00 | 25 | 1015.5 |
| 20260508053523 | 74 | 200 | 1.0 | 4.0 | 0.00 | 0.00 | 0.00 | 24 | 1015.5 |
| 20260508053019 | 75 | 175 | 1.0 | 7.0 | 0.00 | 0.00 | 0.00 | 23 | 1015.4 |
| 20260508052514 | 76 | 133 | 2.0 | 10.0 | 0.00 | 0.00 | 0.00 | 22 | 1015.4 |
| 20260508052030 | 76 | 117 | 5.0 | 10.0 | 0.00 | 0.00 | 0.00 | 21 | 1015.4 |
| 20260508051524 | 75 | 80 | 0.0 | 6.0 | 0.00 | 0.00 | 0.00 | 22 | 1015.3 |
| 20260508051019 | 75 | 88 | 1.0 | 4.0 | 0.00 | 0.00 | 0.00 | 22 | 1015.3 |
| 20260508050519 | 76 | 88 | 0.0 | 6.0 | 0.00 | 0.00 | 0.00 | 21 | 1015.0 |
| 20260508050047 | 77 | 178 | 1.0 | 9.0 | 0.00 | 0.00 | 0.00 | 20 | 1015.0 |
| 20260508045528 | 77 | 215 | 3.0 | 9.0 | 0.00 | 0.00 | 0.00 | 20 | 1014.9 |
| 20260508045024 | 77 | 212 | 3.0 | 11.0 | 0.00 | 0.00 | 0.00 | 20 | 1014.9 |
| 20260508044520 | 77 | 227 | 4.0 | 12.0 | 0.00 | 0.00 | 0.00 | 20 | 1014.8 |
| 20260508044016 | 77 | 250 | 4.0 | 12.0 | 0.00 | 0.00 | 0.00 | 20 | 1014.8 |
| 20260508043532 | 77 | 261 | 4.0 | 11.0 | 0.00 | 0.00 | 0.00 | 20 | 1014.8 |
| 20260508043032 | 77 | 227 | 3.0 | 12.0 | 0.00 | 0.00 | 0.00 | 20 | 1014.7 |
| 20260508042527 | 78 | 256 | 4.0 | 13.0 | 0.00 | 0.00 | 0.00 | 20 | 1014.6 |
| 20260508042023 | 78 | 248 | 3.0 | 14.0 | 0.00 | 0.00 | 0.00 | 20 | 1014.5 |
| 20260508041519 | 78 | 253 | 4.0 | 14.0 | 0.00 | 0.00 | 0.00 | 20 | 1014.5 |
| 20260508041015 | 78 | 210 | 3.0 | 11.0 | 0.00 | 0.00 | 0.00 | 20 | 1014.5 |
| 20260508040531 | 78 | 252 | 4.0 | 11.0 | 0.00 | 0.00 | 0.00 | 20 | 1014.5 |
| 20260508040038 | 78 | 235 | 5.0 | 11.0 | 0.00 | 0.00 | 0.00 | 19 | 1014.4 |
| 20260508035523 | 78 | 277 | 4.0 | 11.0 | 0.00 | 0.00 | 0.00 | 19 | 1014.3 |
| 20260508035019 | 78 | 269 | 3.0 | 13.0 | 0.00 | 0.00 | 0.00 | 19 | 1014.3 |
| 20260508034515 | 79 | 240 | 4.0 | 13.0 | 0.00 | 0.00 | 0.00 | 19 | 1014.0 |
| 20260508034031 | 79 | 254 | 7.0 | 12.0 | 0.00 | 0.00 | 0.00 | 18 | 1014.0 |
| 20260508033526 | 79 | 252 | 5.0 | 12.0 | 0.00 | 0.00 | 0.00 | 18 | 1013.9 |
| 20260508033022 | 79 | 261 | 4.0 | 12.0 | 0.00 | 0.00 | 0.00 | 18 | 1013.7 |
| 20260508032518 | 79 | 233 | 2.0 | 7.0 | 0.00 | 0.00 | 0.00 | 18 | 1013.8 |
| 20260508032018 | 79 | 232 | 4.0 | 7.0 | 0.00 | 0.00 | 0.00 | 18 | 1013.5 |
| 20260508031533 | 79 | 223 | 3.0 | 10.0 | 0.00 | 0.00 | 0.00 | 18 | 1013.5 |
| 20260508031027 | 79 | 233 | 3.0 | 7.0 | 0.00 | 0.00 | 0.00 | 18 | 1013.3 |
| 20260508030523 | 79 | 241 | 1.0 | 6.0 | 0.00 | 0.00 | 0.00 | 18 | 1013.2 |
| 20260508030031 | 80 | 244 | 2.0 | 6.0 | 0.00 | 0.00 | 0.00 | 18 | 1013.2 |
| 20260508025533 | 80 | 226 | 3.0 | 9.0 | 0.00 | 0.00 | 0.00 | 18 | 1013.1 |
| 20260508025029 | 80 | 269 | 4.0 | 10.0 | 0.00 | 0.00 | 0.00 | 18 | 1013.0 |
| 20260508024524 | 80 | 226 | 5.0 | 12.0 | 0.00 | 0.00 | 0.00 | 17 | 1013.0 |
| 20260508024024 | 81 | 249 | 6.0 | 15.0 | 0.00 | 0.00 | 0.00 | 17 | 1012.9 |
| 20260508023520 | 81 | 264 | 9.0 | 19.0 | 0.00 | 0.00 | 0.00 | 17 | 1012.9 |
| 20260508023016 | 81 | 238 | 9.0 | 19.0 | 0.00 | 0.00 | 0.00 | 17 | 1012.8 |
| 20260508022531 | 81 | 246 | 5.0 | 15.0 | 0.00 | 0.00 | 0.00 | 17 | 1012.9 |
| 20260508022027 | 82 | 237 | 8.0 | 15.0 | 0.00 | 0.00 | 0.00 | 16 | 1012.8 |
| 20260508021523 | 82 | 174 | 6.0 | 11.0 | 0.00 | 0.00 | 0.00 | 16 | 1012.7 |
| 20260508021019 | 84 | 132 | 3.0 | 9.0 | 0.00 | 0.00 | 0.00 | 12 | 1012.8 |
| 20260508020519 | 84 | 301 | 2.0 | 10.0 | 0.00 | 0.00 | 0.00 | 12 | 1012.4 |
| 20260508020047 | 85 | 290 | 3.0 | 10.0 | 0.00 | 0.00 | 0.00 | 12 | 1012.2 |
| 20260508015528 | 85 | 267 | 3.0 | 9.0 | 0.00 | 0.00 | 0.00 | 12 | 1012.1 |
| 20260508015024 | 85 | 286 | 4.0 | 9.0 | 0.00 | 0.00 | 0.00 | 12 | 1011.9 |
| 20260508014520 | 85 | 290 | 2.0 | 9.0 | 0.00 | 0.00 | 0.00 | 12 | 1012.0 |
| 20260508014016 | 85 | 302 | 4.0 | 12.0 | 0.00 | 0.00 | 0.00 | 12 | 1011.9 |
| 20260508013531 | 85 | 291 | 4.0 | 14.0 | 0.00 | 0.00 | 0.00 | 12 | 1011.9 |
| 20260508013031 | 85 | 290 | 6.0 | 14.0 | 0.00 | 0.00 | 0.00 | 12 | 1011.9 |
| 20260508012527 | 86 | 291 | 6.0 | 14.0 | 0.00 | 0.00 | 0.00 | 12 | 1011.8 |
| 20260508012023 | 86 | 283 | 7.0 | 13.0 | 0.00 | 0.00 | 0.00 | 12 | 1011.8 |
| 20260508011519 | 86 | 277 | 3.0 | 8.0 | 0.00 | 0.00 | 0.00 | 12 | 1011.6 |
| 20260508011015 | 86 | 279 | 3.0 | 13.0 | 0.00 | 0.00 | 0.00 | 12 | 1011.6 |
| 20260508010531 | 86 | 314 | 4.0 | 13.0 | 0.00 | 0.00 | 0.00 | 12 | 1011.6 |
| 20260508010038 | 87 | 296 | 5.0 | 11.0 | 0.00 | 0.00 | 0.00 | 12 | 1011.4 |
| 20260508005523 | 87 | 348 | 2.0 | 8.0 | 0.00 | 0.00 | 0.00 | 12 | 1011.4 |
| 20260508005019 | 87 | 294 | 3.0 | 10.0 | 0.00 | 0.00 | 0.00 | 12 | 1011.4 |
| 20260508004515 | 87 | 276 | 5.0 | 11.0 | 0.00 | 0.00 | 0.00 | 12 | 1011.3 |
| 20260508003514 | 88 | 273 | 5.0 | 9.0 | 0.00 | 0.00 | 0.00 | 12 | 1011.2 |
| 20260508003029 | 88 | 277 | 4.0 | 12.0 | 0.00 | 0.00 | 0.00 | 12 | 1011.2 |
| 20260508002525 | 88 | 295 | 6.0 | 12.0 | 0.00 | 0.00 | 0.00 | 12 | 1011.1 |
| 20260508002021 | 88 | 284 | 5.0 | 12.0 | 0.00 | 0.00 | 0.00 | 12 | 1011.1 |
| 20260508001517 | 89 | 307 | 5.0 | 12.0 | 0.00 | 0.00 | 0.00 | 12 | 1011.1 |
| 20260508001017 | 90 | 345 | 6.0 | 12.0 | 0.00 | 0.00 | 0.00 | 12 | 1011.2 |
| 20260508000513 | 89 | 293 | 2.0 | 13.0 | 0.00 | 0.00 | 0.00 | 12 | 1011.1 |
| 20260508000040 | 89 | 287 | 5.0 | 11.0 | 0.00 | 0.00 | 0.00 | 12 | 1011.1 |
| 20260507235522 | 88 | 285 | 1.0 | 8.0 | 0.00 | 0.00 | 0.00 | 13 | 1011.2 |
| 20260507235017 | 90 | 329 | 3.0 | 7.0 | 0.00 | 0.00 | 0.00 | 12 | 1011.1 |
| 20260507234513 | 90 | 279 | 2.0 | 8.0 | 0.00 | 0.00 | 0.00 | 12 | 1011.1 |
| 20260507234029 | 89 | 281 | 4.0 | 9.0 | 0.00 | 0.00 | 0.00 | 12 | 1011.2 |
| 20260507233529 | 87 | 18 | 1.0 | 10.0 | 0.00 | 0.00 | 0.00 | 13 | 1011.1 |
| 20260507233024 | 88 | 19 | 5.0 | 10.0 | 0.00 | 0.00 | 0.00 | 12 | 1011.2 |
| 20260507232520 | 89 | 282 | 3.0 | 10.0 | 0.00 | 0.00 | 0.00 | 12 | 1011.1 |
| 20260507232016 | 90 | 296 | 4.0 | 11.0 | 0.00 | 0.00 | 0.00 | 12 | 1011.1 |
| 20260507231532 | 89 | 287 | 2.0 | 11.0 | 0.00 | 0.00 | 0.00 | 12 | 1011.2 |
| 20260507231027 | 89 | 356 | 3.0 | 7.0 | 0.00 | 0.00 | 0.00 | 12 | 1011.2 |
| 20260507230523 | 88 | 51 | 2.0 | 9.0 | 0.00 | 0.00 | 0.00 | 13 | 1011.3 |
| 20260507230035 | 89 | 278 | 3.0 | 9.0 | 0.00 | 0.00 | 0.00 | 12 | 1011.4 |
| 20260507225516 | 89 | 340 | 2.0 | 8.0 | 0.00 | 0.00 | 0.00 | 13 | 1011.4 |
| 20260507224514 | 88 | 5 | 4.0 | 11.0 | 0.00 | 0.00 | 0.00 | 13 | 1011.4 |
| 20260507224030 | 88 | 337 | 5.0 | 12.0 | 0.00 | 0.00 | 0.00 | 13 | 1011.6 |
| 20260507223527 | 90 | 15 | 3.0 | 16.0 | 0.00 | 0.00 | 0.00 | 12 | 1011.4 |
| 20260507223023 | 88 | 49 | 6.0 | 16.0 | 0.00 | 0.00 | 0.00 | 12 | 1011.3 |
| 20260507222524 | 87 | 12 | 3.0 | 9.0 | 0.00 | 0.00 | 0.00 | 13 | 1011.6 |
| 20260507222019 | 88 | 12 | 6.0 | 9.0 | 0.00 | 0.00 | 0.00 | 13 | 1011.6 |
| 20260507221515 | 89 | 16 | 2.0 | 7.0 | 0.00 | 0.00 | 0.00 | 12 | 1011.8 |
| 20260507221030 | 89 | 318 | 3.0 | 10.0 | 0.00 | 0.00 | 0.00 | 12 | 1011.8 |
| 20260507220526 | 90 | 354 | 4.0 | 10.0 | 0.00 | 0.00 | 0.00 | 12 | 1011.9 |
| 20260507220033 | 89 | 354 | 1.0 | 9.0 | 0.00 | 0.00 | 0.00 | 13 | 1011.9 |
| 20260507215515 | 87 | 48 | 2.0 | 9.0 | 0.00 | 0.00 | 0.00 | 12 | 1011.9 |
| 20260507215014 | 88 | 33 | 4.0 | 11.0 | 0.00 | 0.00 | 0.00 | 12 | 1012.0 |
| 20260507214530 | 89 | 20 | 5.0 | 11.0 | 0.00 | 0.00 | 0.00 | 12 | 1011.9 |
| 20260507214025 | 89 | 73 | 3.0 | 6.0 | 0.00 | 0.00 | 0.00 | 11 | 1012.0 |
| 20260507213521 | 89 | 348 | 2.0 | 10.0 | 0.00 | 0.00 | 0.00 | 11 | 1012.1 |
| 20260507213018 | 89 | 350 | 2.0 | 10.0 | 0.00 | 0.00 | 0.00 | 11 | 1012.2 |
| 20260507212513 | 89 | 18 | 3.0 | 8.0 | 0.00 | 0.00 | 0.00 | 11 | 1012.2 |
| 20260507212029 | 89 | 357 | 2.0 | 8.0 | 0.00 | 0.00 | 0.00 | 12 | 1012.2 |
| 20260507211525 | 88 | 13 | 5.0 | 10.0 | 0.00 | 0.00 | 0.00 | 12 | 1012.4 |
| 20260507211025 | 89 | 131 | 4.0 | 10.0 | 0.00 | 0.00 | 0.00 | 11 | 1012.4 |
| 20260507210521 | 89 | 64 | 3.0 | 11.0 | 0.00 | 0.00 | 0.00 | 11 | 1012.5 |
| 20260507210028 | 88 | 46 | 4.0 | 11.0 | 0.00 | 0.00 | 0.00 | 12 | 1012.5 |
| 20260507205529 | 88 | 262 | 2.0 | 7.0 | 0.00 | 0.00 | 0.00 | 11 | 1012.6 |
| 20260507205025 | 87 | 321 | 2.0 | 10.0 | 0.00 | 0.00 | 0.00 | 11 | 1012.7 |
| 20260507204521 | 88 | 20 | 6.0 | 10.0 | 0.00 | 0.00 | 0.00 | 11 | 1012.9 |
| 20260507204017 | 87 | 35 | 6.0 | 11.0 | 0.00 | 0.00 | 0.00 | 11 | 1012.8 |
| 20260507203517 | 87 | 356 | 7.0 | 11.0 | 0.00 | 0.00 | 0.00 | 12 | 1012.9 |
| 20260507203013 | 88 | 328 | 2.0 | 17.0 | 0.00 | 0.00 | 0.00 | 11 | 1012.9 |
| 20260507202529 | 88 | 340 | 6.0 | 17.0 | 0.00 | 0.00 | 0.00 | 12 | 1012.9 |
| 20260507202025 | 86 | 339 | 3.0 | 11.0 | 0.00 | 0.00 | 0.00 | 11 | 1013.0 |
| 20260507201521 | 88 | 42 | 5.0 | 12.0 | 0.00 | 0.00 | 0.00 | 11 | 1013.1 |
| 20260507201016 | 87 | 12 | 7.0 | 12.0 | 0.00 | 0.00 | 0.00 | 11 | 1013.0 |
| 20260507200532 | 87 | 360 | 5.0 | 10.0 | 0.00 | 0.00 | 0.00 | 11 | 1013.1 |
| 20260507200044 | 87 | 2 | 5.0 | 10.0 | 0.00 | 0.00 | 0.00 | 11 | 1013.1 |
| 20260507195525 | 88 | 70 | 4.0 | 9.0 | 0.00 | 0.00 | 0.00 | 11 | 1013.3 |
| 20260507195021 | 87 | 223 | 2.0 | 9.0 | 0.00 | 0.00 | 0.00 | 12 | 1013.3 |
| 20260507194516 | 87 | 202 | 3.0 | 9.0 | 0.00 | 0.00 | 0.00 | 11 | 1013.5 |
| 20260507194013 | 89 | 318 | 2.0 | 4.0 | 0.00 | 0.00 | 0.00 | 11 | 1013.3 |
| 20260507193528 | 87 | 348 | 2.0 | 8.0 | 0.00 | 0.00 | 0.00 | 11 | 1013.6 |
| 20260507193024 | 86 | 331 | 2.0 | 9.0 | 0.00 | 0.00 | 0.00 | 12 | 1013.6 |
| 20260507192524 | 86 | 26 | 3.0 | 6.0 | 0.00 | 0.00 | 0.00 | 12 | 1013.8 |
| 20260507192020 | 88 | 2 | 1.0 | 6.0 | 0.00 | 0.00 | 0.00 | 13 | 1013.8 |
| 20260507191515 | 87 | 9 | 2.0 | 5.0 | 0.00 | 0.00 | 0.00 | 12 | 1013.8 |
| 20260507191031 | 87 | 329 | 1.0 | 5.0 | 0.00 | 0.00 | 0.00 | 12 | 1013.9 |
| 20260507190527 | 88 | 11 | 2.0 | 5.0 | 0.00 | 0.00 | 0.00 | 12 | 1014.1 |
| 20260507190034 | 86 | 36 | 2.0 | 5.0 | 0.00 | 0.00 | 0.00 | 12 | 1014.1 |
| 20260507185516 | 88 | 9 | 2.0 | 5.0 | 0.00 | 0.00 | 0.00 | 13 | 1014.1 |
| 20260507185016 | 86 | 16 | 2.0 | 5.0 | 0.00 | 0.00 | 0.00 | 13 | 1014.3 |
| 20260507184531 | 84 | 66 | 2.0 | 8.0 | 0.00 | 0.00 | 0.00 | 14 | 1014.4 |
| 20260507184027 | 85 | 63 | 5.0 | 8.0 | 0.00 | 0.00 | 0.00 | 14 | 1014.5 |
| 20260507183524 | 87 | 328 | 1.0 | 5.0 | 0.00 | 0.00 | 0.00 | 13 | 1014.6 |
| 20260507183020 | 85 | 325 | 2.0 | 6.0 | 0.00 | 0.00 | 0.00 | 14 | 1014.6 |
| 20260507182516 | 85 | 348 | 2.0 | 7.0 | 0.00 | 0.00 | 0.00 | 15 | 1014.7 |
| 20260507182032 | 84 | 41 | 4.0 | 8.0 | 0.00 | 0.00 | 0.00 | 16 | 1014.7 |
| 20260507181527 | 86 | 352 | 2.0 | 4.0 | 0.00 | 0.00 | 0.00 | 16 | 1014.8 |
| 20260507181027 | 84 | 352 | 2.0 | 8.0 | 0.00 | 0.00 | 0.00 | 16 | 1014.9 |
| 20260507180523 | 83 | 356 | 2.0 | 8.0 | 0.00 | 0.00 | 0.00 | 16 | 1014.9 |
| 20260507180031 | 83 | 9 | 2.0 | 6.0 | 0.00 | 0.00 | 0.00 | 17 | 1014.9 |
| 20260507175532 | 85 | 24 | 2.0 | 5.0 | 0.00 | 0.00 | 0.00 | 16 | 1015.0 |
| 20260507175028 | 82 | 38 | 3.0 | 5.0 | 0.00 | 0.00 | 0.00 | 16 | 1015.0 |
| 20260507174524 | 82 | 64 | 3.0 | 5.0 | 0.00 | 0.00 | 0.00 | 16 | 1015.0 |
| 20260507174020 | 81 | 58 | 2.0 | 5.0 | 0.00 | 0.00 | 0.00 | 17 | 1015.2 |
| 20260507173519 | 82 | 47 | 3.0 | 5.0 | 0.00 | 0.00 | 0.00 | 17 | 1015.3 |
| 20260507173015 | 81 | 132 | 1.0 | 4.0 | 0.00 | 0.00 | 0.00 | 18 | 1015.3 |
| 20260507172531 | 81 | 131 | 3.0 | 4.0 | 0.00 | 0.00 | 0.00 | 18 | 1015.4 |
| 20260507172027 | 83 | 155 | 1.0 | 5.0 | 0.00 | 0.00 | 0.00 | 18 | 1015.4 |
| 20260507171523 | 81 | 219 | 2.0 | 8.0 | 0.00 | 0.00 | 0.00 | 19 | 1015.5 |
| 20260507171019 | 81 | 227 | 3.0 | 8.0 | 0.00 | 0.00 | 0.00 | 19 | 1015.6 |
| 20260507170514 | 80 | 102 | 0.0 | 3.0 | 0.00 | 0.00 | 0.00 | 20 | 1015.5 |
| 20260507170027 | 78 | 104 | 1.0 | 5.0 | 0.00 | 0.00 | 0.00 | 20 | 1015.5 |
| 20260507165528 | 77 | 105 | 3.0 | 5.0 | 0.00 | 0.00 | 0.00 | 21 | 1015.8 |
| 20260507165024 | 77 | 210 | 1.0 | 7.0 | 0.00 | 0.00 | 0.00 | 20 | 1015.7 |
| 20260507164519 | 77 | 113 | 3.0 | 8.0 | 0.00 | 0.00 | 0.00 | 21 | 1015.7 |
| 20260507164015 | 77 | 211 | 1.0 | 8.0 | 0.00 | 0.00 | 0.00 | 20 | 1015.8 |
| 20260507163531 | 77 | 116 | 2.0 | 5.0 | 0.00 | 0.00 | 0.00 | 22 | 1015.8 |
| 20260507163027 | 75 | 126 | 3.0 | 7.0 | 0.00 | 0.00 | 0.00 | 22 | 1015.8 |
| 20260507162527 | 75 | 141 | 2.0 | 7.0 | 0.00 | 0.00 | 0.00 | 23 | 1015.9 |
| 20260507162023 | 75 | 126 | 2.0 | 6.0 | 0.00 | 0.00 | 0.00 | 23 | 1016.0 |
| 20260507161519 | 75 | 210 | 2.0 | 6.0 | 0.00 | 0.00 | 0.00 | 23 | 1016.0 |
| 20260507161015 | 73 | 90 | 4.0 | 8.0 | 0.00 | 0.00 | 0.00 | 25 | 1016.1 |
| 20260507160530 | 73 | 96 | 5.0 | 8.0 | 0.00 | 0.00 | 0.00 | 24 | 1016.2 |
| 20260507160038 | 74 | 92 | 2.0 | 7.0 | 0.00 | 0.00 | 0.00 | 24 | 1016.3 |
| 20260507155519 | 74 | 61 | 1.0 | 3.0 | 0.00 | 0.00 | 0.00 | 24 | 1016.1 |
| 20260507155019 | 74 | 60 | 2.0 | 5.0 | 0.00 | 0.00 | 0.00 | 25 | 1016.3 |
| 20260507154515 | 73 | 61 | 2.0 | 5.0 | 0.00 | 0.00 | 0.00 | 26 | 1016.4 |
| 20260507154031 | 72 | 87 | 2.0 | 7.0 | 0.00 | 0.00 | 0.00 | 26 | 1016.4 |
| 20260507153526 | 72 | 90 | 3.0 | 7.0 | 0.00 | 0.00 | 0.00 | 25 | 1016.4 |
| 20260507153022 | 72 | 85 | 1.0 | 4.0 | 0.00 | 0.00 | 0.00 | 26 | 1016.4 |
| 20260507152518 | 71 | 88 | 2.0 | 4.0 | 0.00 | 0.00 | 0.00 | 27 | 1016.5 |
| 20260507152014 | 69 | 72 | 2.0 | 4.0 | 0.00 | 0.00 | 0.00 | 27 | 1016.4 |
| 20260507151514 | 70 | 58 | 2.0 | 5.0 | 0.00 | 0.00 | 0.00 | 29 | 1016.5 |
| 20260507151031 | 69 | 89 | 2.0 | 5.0 | 0.00 | 0.00 | 0.00 | 28 | 1016.4 |
| 20260507150527 | 68 | 136 | 2.0 | 5.0 | 0.00 | 0.00 | 0.00 | 29 | 1016.5 |
| 20260507150035 | 67 | 141 | 2.0 | 5.0 | 0.00 | 0.00 | 0.00 | 30 | 1016.5 |
| 20260507145516 | 67 | 152 | 1.0 | 5.0 | 0.00 | 0.00 | 0.00 | 30 | 1016.5 |
| 20260507145012 | 67 | 119 | 2.0 | 5.0 | 0.00 | 0.00 | 0.00 | 31 | 1016.5 |
| 20260507144528 | 66 | 118 | 3.0 | 5.0 | 0.00 | 0.00 | 0.00 | 30 | 1016.5 |
| 20260507144024 | 66 | 137 | 1.0 | 5.0 | 0.00 | 0.00 | 0.00 | 33 | 1016.5 |
| 20260507143523 | 65 | 164 | 1.0 | 6.0 | 0.00 | 0.00 | 0.00 | 34 | 1016.6 |
| 20260507143019 | 64 | 148 | 3.0 | 6.0 | 0.00 | 0.00 | 0.00 | 33 | 1016.7 |
| 20260507142514 | 65 | 140 | 2.0 | 6.0 | 0.00 | 0.00 | 0.00 | 34 | 1016.6 |
| 20260507142030 | 64 | 115 | 3.0 | 5.0 | 0.00 | 0.00 | 0.00 | 35 | 1016.6 |
| 20260507141526 | 64 | 125 | 2.0 | 5.0 | 0.00 | 0.00 | 0.00 | 34 | 1016.5 |
| 20260507141022 | 64 | 159 | 1.0 | 6.0 | 0.00 | 0.00 | 0.00 | 35 | 1016.5 |
| 20260507140518 | 64 | 130 | 2.0 | 5.0 | 0.00 | 0.00 | 0.00 | 35 | 1016.5 |
| 20260507140030 | 63 | 159 | 1.0 | 5.0 | 0.00 | 0.00 | 0.00 | 35 | 1016.4 |
| 20260507135531 | 63 | 128 | 2.0 | 5.0 | 0.00 | 0.00 | 0.00 | 36 | 1016.4 |
| 20260507135027 | 62 | 159 | 1.0 | 4.0 | 0.00 | 0.00 | 0.00 | 38 | 1016.5 |
| 20260507134524 | 61 | 142 | 1.0 | 4.0 | 0.00 | 0.00 | 0.00 | 38 | 1016.4 |
| 20260507134020 | 61 | 128 | 0.0 | 2.0 | 0.00 | 0.00 | 0.00 | 40 | 1016.4 |
| 20260507133516 | 60 | 113 | 1.0 | 3.0 | 0.00 | 0.00 | 0.00 | 41 | 1016.4 |
| 20260507133031 | 59 | 111 | 1.0 | 3.0 | 0.00 | 0.00 | 0.00 | 43 | 1016.4 |
| 20260507132531 | 58 | 148 | 0.0 | 4.0 | 0.00 | 0.00 | 0.00 | 44 | 1016.3 |
| 20260507132028 | 58 | 143 | 1.0 | 4.0 | 0.00 | 0.00 | 0.00 | 46 | 1016.3 |
| 20260507131524 | 57 | 146 | 0.0 | 3.0 | 0.00 | 0.00 | 0.00 | 47 | 1016.3 |
| 20260507131020 | 57 | 144 | 0.0 | 4.0 | 0.00 | 0.00 | 0.00 | 48 | 1016.3 |
| 20260507130516 | 56 | 143 | 1.0 | 4.0 | 0.00 | 0.00 | 0.00 | 49 | 1016.2 |
| 20260507130043 | 56 | 143 | 0.0 | 2.0 | 0.00 | 0.00 | 0.00 | 49 | 1016.2 |
| 20260507125525 | 55 | 142 | 0.0 | 1.0 | 0.00 | 0.00 | 0.00 | 50 | 1016.2 |
| 20260507125024 | 55 | 136 | 0.0 | 0.0 | 0.00 | 0.00 | 0.00 | 51 | 1016.1 |
| 20260507124520 | 55 | 136 | 0.0 | 0.0 | 0.00 | 0.00 | 0.00 | 51 | 1016.1 |
| 20260507124016 | 55 | 136 | 0.0 | 0.0 | 0.00 | 0.00 | 0.00 | 51 | 1016.1 |
| 20260507123512 | 55 | 136 | 0.0 | 0.0 | 0.00 | 0.00 | 0.00 | 50 | 1016.0 |
| 20260507123028 | 55 | 136 | 0.0 | 0.0 | 0.00 | 0.00 | 0.00 | 50 | 1016.0 |
| 20260507122524 | 55 | 136 | 0.0 | 0.0 | 0.00 | 0.00 | 0.00 | 50 | 1016.0 |
| 20260507122020 | 55 | 135 | 0.0 | 0.0 | 0.00 | 0.00 | 0.00 | 50 | 1016.0 |
| 20260507121519 | 55 | 136 | 0.0 | 1.0 | 0.00 | 0.00 | 0.00 | 50 | 1016.0 |
| 20260507121015 | 56 | 136 | 0.0 | 1.0 | 0.00 | 0.00 | 0.00 | 48 | 1015.9 |
| 20260507120531 | 56 | 136 | 0.0 | 0.0 | 0.00 | 0.00 | 0.00 | 48 | 1015.9 |
| 20260507120039 | 56 | 136 | 0.0 | 1.0 | 0.00 | 0.00 | 0.00 | 49 | 1015.9 |
| 20260507115521 | 56 | 136 | 0.0 | 2.0 | 0.00 | 0.00 | 0.00 | 48 | 1016.0 |
| 20260507115016 | 56 | 136 | 0.0 | 3.0 | 0.00 | 0.00 | 0.00 | 48 | 1016.0 |
| 20260507114512 | 58 | 204 | 1.0 | 3.0 | 0.00 | 0.00 | 0.00 | 44 | 1016.0 |
| 20260507114012 | 58 | 204 | 1.0 | 4.0 | 0.00 | 0.00 | 0.00 | 45 | 1016.1 |
| 20260507113528 | 57 | 205 | 1.0 | 4.0 | 0.00 | 0.00 | 0.00 | 45 | 1016.1 |
| 20260507113024 | 57 | 206 | 0.0 | 4.0 | 0.00 | 0.00 | 0.00 | 45 | 1016.1 |
| 20260507112520 | 57 | 206 | 0.0 | 4.0 | 0.00 | 0.00 | 0.00 | 45 | 1016.1 |
| 20260507112016 | 58 | 221 | 0.0 | 4.0 | 0.00 | 0.00 | 0.00 | 44 | 1016.1 |
| 20260507111512 | 57 | 293 | 0.0 | 2.0 | 0.00 | 0.00 | 0.00 | 44 | 1016.0 |
| 20260507111028 | 57 | 293 | 0.0 | 2.0 | 0.00 | 0.00 | 0.00 | 44 | 1016.0 |
| 20260507110523 | 56 | 293 | 0.0 | 1.0 | 0.00 | 0.00 | 0.00 | 46 | 1015.9 |
| 20260507110035 | 57 | 293 | 0.0 | 1.0 | 0.00 | 0.00 | 0.00 | 45 | 1015.8 |
| 20260507105516 | 58 | 293 | 0.0 | 1.0 | 0.00 | 0.00 | 0.00 | 44 | 1015.8 |
| 20260507105012 | 57 | 293 | 0.0 | 1.0 | 0.00 | 0.00 | 0.00 | 46 | 1015.9 |
| 20260507104527 | 57 | 293 | 0.0 | 1.0 | 0.00 | 0.00 | 0.00 | 46 | 1015.8 |
| 20260507104023 | 58 | 293 | 0.0 | 1.0 | 0.00 | 0.00 | 0.00 | 45 | 1015.9 |
| 20260507103518 | 58 | 293 | 0.0 | 2.0 | 0.00 | 0.00 | 0.00 | 42 | 1015.9 |
| 20260507103014 | 59 | 293 | 0.0 | 2.0 | 0.00 | 0.00 | 0.00 | 41 | 1015.9 |
| 20260507102514 | 59 | 293 | 0.0 | 2.0 | 0.00 | 0.00 | 0.00 | 42 | 1016.0 |
| 20260507102029 | 59 | 293 | 0.0 | 2.0 | 0.00 | 0.00 | 0.00 | 42 | 1016.0 |
| 20260507101524 | 58 | 293 | 1.0 | 2.0 | 0.00 | 0.00 | 0.00 | 45 | 1016.0 |
| 20260507101020 | 58 | 293 | 0.0 | 0.0 | 0.00 | 0.00 | 0.00 | 44 | 1016.0 |
| 20260507100516 | 58 | 293 | 0.0 | 1.0 | 0.00 | 0.00 | 0.00 | 43 | 1016.1 |
| 20260507100043 | 59 | 293 | 0.0 | 1.0 | 0.00 | 0.00 | 0.00 | 42 | 1016.0 |
| 20260507095525 | 59 | 293 | 0.0 | 1.0 | 0.00 | 0.00 | 0.00 | 41 | 1016.2 |
| 20260507095024 | 59 | 293 | 0.0 | 0.0 | 0.00 | 0.00 | 0.00 | 41 | 1016.2 |
| 20260507094519 | 59 | 293 | 0.0 | 1.0 | 0.00 | 0.00 | 0.00 | 41 | 1016.2 |
| 20260507094015 | 60 | 293 | 0.0 | 2.0 | 0.00 | 0.00 | 0.00 | 39 | 1016.2 |
| 20260507093530 | 60 | 293 | 0.0 | 3.0 | 0.00 | 0.00 | 0.00 | 39 | 1016.2 |
| 20260507093025 | 60 | 293 | 0.0 | 2.0 | 0.00 | 0.00 | 0.00 | 39 | 1016.2 |
| 20260507092520 | 60 | 293 | 0.0 | 0.0 | 0.00 | 0.00 | 0.00 | 38 | 1016.2 |
| 20260507092016 | 61 | 293 | 0.0 | 1.0 | 0.00 | 0.00 | 0.00 | 37 | 1016.2 |
| 20260507091513 | 61 | 293 | 0.0 | 1.0 | 0.00 | 0.00 | 0.00 | 36 | 1016.3 |
| 20260507091029 | 61 | 293 | 0.0 | 1.0 | 0.00 | 0.00 | 0.00 | 35 | 1016.4 |
| 20260507090524 | 62 | 293 | 0.0 | 2.0 | 0.00 | 0.00 | 0.00 | 35 | 1016.3 |
| 20260507090032 | 62 | 293 | 0.0 | 2.0 | 0.00 | 0.00 | 0.00 | 34 | 1016.3 |
| 20260507085513 | 62 | 293 | 0.0 | 2.0 | 0.00 | 0.00 | 0.00 | 34 | 1016.3 |
| 20260507085029 | 62 | 292 | 0.0 | 2.0 | 0.00 | 0.00 | 0.00 | 34 | 1016.3 |
| 20260507084525 | 62 | 292 | 0.0 | 2.0 | 0.00 | 0.00 | 0.00 | 33 | 1016.4 |
| 20260507084020 | 62 | 292 | 0.0 | 3.0 | 0.00 | 0.00 | 0.00 | 34 | 1016.3 |
| 20260507083520 | 62 | 291 | 1.0 | 3.0 | 0.00 | 0.00 | 0.00 | 34 | 1016.3 |
| 20260507083016 | 63 | 290 | 0.0 | 1.0 | 0.00 | 0.00 | 0.00 | 32 | 1016.3 |
| 20260507082512 | 63 | 293 | 0.0 | 2.0 | 0.00 | 0.00 | 0.00 | 31 | 1016.4 |
| 20260507082027 | 63 | 292 | 0.0 | 3.0 | 0.00 | 0.00 | 0.00 | 31 | 1016.4 |
| 20260507081522 | 63 | 292 | 0.0 | 3.0 | 0.00 | 0.00 | 0.00 | 31 | 1016.5 |
| 20260507081018 | 63 | 292 | 1.0 | 4.0 | 0.00 | 0.00 | 0.00 | 31 | 1016.5 |
| 20260507080514 | 64 | 295 | 1.0 | 4.0 | 0.00 | 0.00 | 0.00 | 31 | 1016.4 |
| 20260507080026 | 64 | 294 | 1.0 | 4.0 | 0.00 | 0.00 | 0.00 | 31 | 1016.4 |
| 20260507075527 | 64 | 294 | 0.0 | 2.0 | 0.00 | 0.00 | 0.00 | 31 | 1016.4 |